Mapleton Depot, Pennsylvania
Current Conditions -  °F | °C
As of 5:53 AM on Saturday 25 Oct 2014 (Local Time) from KAOO Reporting Station
Broken Clouds Broken Clouds  
Wind Chill: 45°   Ceiling: 4800
Heat Index: 45°   Visibility: 10mi
Dew Point: 38°   Wind: 3mph
Humidity: 76%   Direction: 250°WSW
Pressure: 29.95"   Gusts: NA
Location:  40.4°N, 77.95°W
Report Text: KAOO 250953Z AUTO 25003KT 10SM BKN048 07/03 A2995 RMK AO2 SLP145 T00720033
Loading
Personal Weather Stations






























Interactive Weather Map
Tropical Storm Tracking
New forecast layout! Learn more

10-Day Weather Forecast

Advertisements
Track Severe Weather on mobile